Time;durP1;ratioP1;P1;durP2;ratioP2;P2;SDS_P1;SDS_P2;PMS_P1;PMS_P2;Temp;Humidity;BMP_temperature;BMP_pressure;BME280_temperature;BME280_humidity;BME280_pressure;Samples;Min_cycle;Max_cycle;Signal;HPM_P1;HPM_P2
2022/12/10 00:01:24;;;;;;;6.90;0.90;;;;;;;9.46;100.00;98992.63;5144814;27;20721;-63
2022/12/10 00:03:52;;;;;;;0.40;0.40;;;;;;;9.46;100.00;98992.63;5142057;27;20202;-64
2022/12/10 00:06:21;;;;;;;0.50;0.50;;;;;;;9.48;100.00;98995.13;5144234;27;20218;-64
2022/12/10 00:08:48;;;;;;;0.40;0.40;;;;;;;9.47;100.00;98988.34;5142504;27;20217;-64
2022/12/10 00:11:17;;;;;;;0.40;0.40;;;;;;;9.44;100.00;98979.03;5134347;27;20197;-63
2022/12/10 00:13:45;;;;;;;0.60;0.60;;;;;;;9.45;100.00;98985.84;5145990;27;20217;-64
2022/12/10 00:16:14;;;;;;;0.40;0.40;;;;;;;9.45;100.00;98985.84;5137295;27;20254;-63
2022/12/10 00:18:42;;;;;;;0.40;0.40;;;;;;;9.46;100.00;98974.72;5140194;27;20205;-64
2022/12/10 00:21:12;;;;;;;0.50;0.50;;;;;;;9.46;100.00;98979.84;5148104;27;20209;-64
2022/12/10 00:23:39;;;;;;;0.60;0.60;;;;;;;9.50;100.00;98985.69;5144706;27;20189;-64
2022/12/10 00:26:08;;;;;;;0.80;0.80;;;;;;;9.52;100.00;98976.25;5149301;27;20194;-64
2022/12/10 00:28:35;;;;;;;0.50;0.50;;;;;;;9.49;100.00;98987.44;5144179;27;20214;-63
2022/12/10 00:31:06;;;;;;;0.50;0.50;;;;;;;9.50;100.00;99003.59;5141189;27;20243;-64
2022/12/10 00:33:33;;;;;;;0.50;0.50;;;;;;;9.37;100.00;98982.69;5143264;27;20210;-64
2022/12/10 00:36:07;;;;;;;1.53;1.53;;;;;;;9.42;100.00;98988.50;5142150;27;20194;-63
2022/12/10 00:38:33;;;;;;;0.50;0.50;;;;;;;9.29;100.00;98988.94;5142897;27;20189;-63
2022/12/10 00:41:00;;;;;;;0.70;0.70;;;;;;;9.30;100.00;99006.81;5147007;27;20190;-63
2022/12/10 00:43:27;;;;;;;0.50;0.50;;;;;;;9.17;100.00;98987.59;5135607;27;20197;-64
2022/12/10 00:45:54;;;;;;;1.47;1.47;;;;;;;9.11;100.00;98990.31;5139604;27;20645;-64
2022/12/10 00:48:22;;;;;;;1.17;1.17;;;;;;;8.93;100.00;98965.34;5141076;27;20213;-64
2022/12/10 00:50:56;;;;;;;0.40;0.40;;;;;;;9.11;100.00;98994.63;5147031;27;20257;-64
2022/12/10 00:53:24;;;;;;;0.57;0.57;;;;;;;9.07;100.00;98983.66;5136052;27;20247;-63
2022/12/10 00:55:51;;;;;;;0.60;0.60;;;;;;;9.08;100.00;98985.31;5140092;27;20308;-64
2022/12/10 00:58:18;;;;;;;0.40;0.40;;;;;;;9.14;100.00;98987.69;5150538;27;20194;-63
2022/12/10 01:00:45;;;;;;;0.50;0.50;;;;;;;9.19;100.00;98972.19;5136714;27;20634;-63
2022/12/10 01:03:12;;;;;;;0.70;0.70;;;;;;;9.24;100.00;98976.28;5138123;27;20198;-64
2022/12/10 01:05:39;;;;;;;0.40;0.40;;;;;;;9.24;100.00;98971.16;5144476;27;20304;-64
2022/12/10 01:08:05;;;;;;;0.63;0.63;;;;;;;9.24;100.00;98965.22;5142911;27;20220;-63
2022/12/10 01:10:34;;;;;;;0.50;0.50;;;;;;;9.24;100.00;98971.16;5146125;27;20223;-64
2022/12/10 01:13:00;;;;;;;0.53;0.53;;;;;;;9.22;100.00;98962.72;5141791;27;20251;-64
2022/12/10 01:15:27;;;;;;;0.50;0.50;;;;;;;9.19;100.00;98960.25;5141075;27;20198;-63
2022/12/10 01:17:54;;;;;;;0.40;0.40;;;;;;;9.13;100.00;98957.91;5138679;27;20197;-64
2022/12/10 01:20:21;;;;;;;0.70;0.70;;;;;;;9.13;100.00;98962.16;5142363;27;20266;-63
2022/12/10 01:22:47;;;;;;;0.60;0.60;;;;;;;9.10;100.00;98960.53;5142023;27;20194;-63
2022/12/10 01:25:14;;;;;;;1.20;1.20;;;;;;;9.09;100.00;98961.41;5142819;27;20194;-63
2022/12/10 01:27:42;;;;;;;0.43;0.43;;;;;;;9.09;100.00;98958.88;5144163;27;20213;-63
2022/12/10 01:30:12;;;;;;;0.40;0.40;;;;;;;9.19;100.00;98962.81;5146946;27;20274;-64
2022/12/10 01:32:38;;;;;;;0.50;0.50;;;;;;;9.24;100.00;98952.44;5142111;27;20197;-64
2022/12/10 01:35:05;;;;;;;0.50;0.50;;;;;;;9.24;100.00;98960.94;5141692;27;20189;-64
2022/12/10 01:37:32;;;;;;;0.57;0.57;;;;;;;9.26;100.00;98954.06;5148392;27;20275;-63
2022/12/10 01:39:59;;;;;;;0.40;0.40;;;;;;;9.31;100.00;98941.94;5140429;27;20198;-64
2022/12/10 01:42:26;;;;;;;0.40;0.40;;;;;;;9.32;100.00;98943.63;5140420;27;20197;-64
2022/12/10 01:45:09;;;;;;;0.47;0.47;;;;;;;9.35;100.00;98948.66;5137404;27;20204;-63
2022/12/10 01:47:36;;;;;;;0.60;0.60;;;;;;;9.21;100.00;98925.22;5130448;27;20198;-64
2022/12/10 01:50:04;;;;;;;0.50;0.50;;;;;;;9.35;100.00;98938.41;5140400;27;20194;-63
2022/12/10 01:52:31;;;;;;;0.60;0.60;;;;;;;9.24;100.00;98906.41;5137881;27;20194;-64
2022/12/10 01:54:58;;;;;;;0.50;0.50;;;;;;;9.42;100.00;98919.44;5142756;27;20661;-64
2022/12/10 01:57:26;;;;;;;0.40;0.40;;;;;;;9.45;100.00;98923.59;5142899;27;20191;-64
2022/12/10 01:59:56;;;;;;;0.50;0.50;;;;;;;9.42;100.00;98924.53;5137015;27;20190;-64
2022/12/10 02:02:35;;;;;;;0.57;0.57;;;;;;;9.45;100.00;98939.78;5143583;27;20614;-63
2022/12/10 02:05:17;;;;;;;0.50;0.50;;;;;;;9.34;100.00;98895.81;5134367;27;20700;-64
2022/12/10 02:07:56;;;;;;;0.50;0.50;;;;;;;9.43;100.00;98910.03;5148659;27;20291;-64
2022/12/10 02:10:40;;;;;;;0.50;0.50;;;;;;;9.43;100.00;98910.03;5145145;27;20623;-64
2022/12/10 02:13:12;;;;;;;0.50;0.50;;;;;;;9.36;100.00;98908.56;5141158;27;20249;-64
2022/12/10 02:15:44;;;;;;;0.50;0.50;;;;;;;9.37;100.00;98911.06;5151489;27;20194;-64
2022/12/10 02:18:18;;;;;;;0.93;0.93;;;;;;;9.36;100.00;98908.56;5138879;27;20217;-64
2022/12/10 02:20:49;;;;;;;0.67;0.67;;;;;;;9.35;100.00;98917.13;5136404;27;20202;-64
2022/12/10 02:23:22;;;;;;;0.50;0.50;;;;;;;9.32;100.00;98923.16;5147309;27;20197;-64
2022/12/10 02:25:54;;;;;;;0.60;0.60;;;;;;;9.21;100.00;98912.44;5148820;27;20197;-64
2022/12/10 02:28:31;;;;;;;0.50;0.50;;;;;;;9.32;100.00;98932.56;5150796;27;20699;-63
2022/12/10 02:31:01;;;;;;;0.50;0.50;;;;;;;9.29;100.00;98912.19;5136699;27;20198;-64
2022/12/10 02:33:30;;;;;;;1.23;1.23;;;;;;;9.28;100.00;98924.16;5147571;27;20198;-63
2022/12/10 02:35:59;;;;;;;0.40;0.40;;;;;;;9.24;100.00;98914.91;5147703;27;20574;-63
2022/12/10 02:38:29;;;;;;;0.50;0.50;;;;;;;9.32;100.00;98923.16;5144274;27;20185;-64
2022/12/10 02:41:05;;;;;;;0.40;0.40;;;;;;;9.26;100.00;98927.66;5141821;27;20194;-64
2022/12/10 02:43:33;;;;;;;0.57;0.57;;;;;;;9.22;100.00;98920.94;5144886;27;20688;-64
2022/12/10 02:46:04;;;;;;;0.70;0.70;;;;;;;9.16;100.00;98922.00;5149324;27;20194;-64
2022/12/10 02:48:33;;;;;;;0.50;0.50;;;;;;;9.11;100.00;98934.06;5141752;27;20209;-63
2022/12/10 02:51:00;;;;;;;0.50;0.50;;;;;;;9.15;100.00;98920.31;5133872;27;20194;-63
2022/12/10 02:53:27;;;;;;;0.50;0.50;;;;;;;9.07;100.00;98894.16;5150674;27;20197;-63
2022/12/10 02:56:13;;;;;;;0.40;0.40;;;;;;;9.13;100.00;98900.81;5144110;27;20251;-63
2022/12/10 02:58:51;;;;;;;0.50;0.50;;;;;;;9.19;100.00;98905.72;5144372;27;20201;-63
2022/12/10 03:01:28;;;;;;;0.50;0.50;;;;;;;9.23;100.00;98897.91;5137295;27;20254;-64
2022/12/10 03:04:01;;;;;;;0.80;0.80;;;;;;;9.24;100.00;98894.44;5142428;27;20204;-64
2022/12/10 03:06:33;;;;;;;0.50;0.50;;;;;;;9.24;100.00;98893.63;5141024;27;20760;-64
2022/12/10 03:09:04;;;;;;;0.50;0.50;;;;;;;9.14;100.00;98887.13;5144293;27;20247;-63
2022/12/10 03:11:33;;;;;;;0.50;0.50;;;;;;;9.20;100.00;98900.56;5144617;27;20193;-63
2022/12/10 03:14:03;;;;;;;0.63;0.63;;;;;;;9.21;100.00;98904.75;5146235;27;20194;-63
2022/12/10 03:16:36;;;;;;;0.63;0.63;;;;;;;9.08;100.00;98888.16;5139573;27;20196;-64
2022/12/10 03:19:06;;;;;;;0.83;0.83;;;;;;;9.14;100.00;98895.66;5142892;27;20627;-64
2022/12/10 03:21:35;;;;;;;0.90;0.90;;;;;;;9.15;100.00;98889.63;5137055;27;20245;-63
2022/12/10 03:24:04;;;;;;;0.50;0.50;;;;;;;9.16;100.00;98880.25;5151519;27;20246;-64
2022/12/10 03:26:32;;;;;;;0.57;0.57;;;;;;;9.14;100.00;98887.97;5140072;27;20198;-63
2022/12/10 03:29:04;;;;;;;0.63;0.63;;;;;;;9.17;100.00;98887.88;5137673;27;20278;-64
2022/12/10 03:31:35;;;;;;;0.60;0.60;;;;;;;9.20;100.00;98885.22;5137322;27;20201;-64
2022/12/10 03:34:03;;;;;;;0.60;0.60;;;;;;;9.07;100.00;98853.25;5153539;27;20672;-64
2022/12/10 03:36:31;;;;;;;0.40;0.40;;;;;;;9.24;100.00;98883.41;5143446;27;20198;-63
2022/12/10 03:38:58;;;;;;;0.53;0.53;;;;;;;9.27;100.00;98865.38;5141409;27;20201;-64
2022/12/10 03:41:25;;;;;;;0.50;0.50;;;;;;;9.30;100.00;98863.56;5139036;27;20198;-63
2022/12/10 03:43:54;;;;;;;0.53;0.53;;;;;;;9.19;100.00;98862.25;5136501;27;20194;-64
2022/12/10 03:46:20;;;;;;;0.63;0.63;;;;;;;9.27;100.00;98857.72;5148547;27;20684;-64
2022/12/10 03:48:49;;;;;;;0.47;0.47;;;;;;;9.28;100.00;98856.81;5145218;27;20213;-63
2022/12/10 03:51:16;;;;;;;0.60;0.60;;;;;;;9.31;100.00;98865.22;5148338;27;20193;-64
2022/12/10 03:53:43;;;;;;;0.40;0.40;;;;;;;9.26;100.00;98856.88;5139817;27;20208;-63
2022/12/10 03:56:10;;;;;;;0.60;0.60;;;;;;;9.13;100.00;98824.09;5144619;27;20189;-64
2022/12/10 03:58:37;;;;;;;0.60;0.60;;;;;;;9.30;100.00;98849.94;5133188;27;20194;-64
2022/12/10 04:01:04;;;;;;;0.57;0.57;;;;;;;9.28;100.00;98855.09;5148721;27;20198;-63
2022/12/10 04:03:31;;;;;;;0.60;0.60;;;;;;;9.32;100.00;98856.66;5143927;27;20241;-64
2022/12/10 04:06:04;;;;;;;0.50;0.50;;;;;;;9.35;100.00;98871.91;5138799;27;20708;-63
2022/12/10 04:08:31;;;;;;;0.57;0.57;;;;;;;9.29;100.00;98861.88;5140075;27;20206;-64
2022/12/10 04:11:03;;;;;;;0.40;0.40;;;;;;;9.26;100.00;98872.22;5142261;27;20197;-65
2022/12/10 04:16:29;;;;;;;0.50;0.50;;;;;;;9.29;100.00;98866.16;5136991;27;20226;-64
2022/12/10 04:18:57;;;;;;;0.67;0.67;;;;;;;9.32;100.00;98864.34;5142096;27;20732;-63
2022/12/10 04:26:55;;;;;;;0.60;0.60;;;;;;;9.25;100.00;98860.31;5145120;27;20308;-63
2022/12/10 04:29:22;;;;;;;0.90;0.90;;;;;;;9.33;100.00;98868.59;5143524;27;20217;-63
2022/12/10 04:31:49;;;;;;;0.47;0.47;;;;;;;9.33;100.00;98878.81;5148885;27;20194;-63
2022/12/10 04:34:16;;;;;;;0.50;0.50;;;;;;;9.34;100.00;98865.13;5143063;27;20653;-64
2022/12/10 04:36:44;;;;;;;0.50;0.50;;;;;;;9.26;100.00;98863.72;5142507;27;20198;-64
2022/12/10 04:39:12;;;;;;;1.17;1.17;;;;;;;9.20;100.00;98846.84;5138261;27;20262;-64
2022/12/10 04:41:41;;;;;;;0.50;0.50;;;;;;;9.31;100.00;98869.50;5138205;27;20647;-64
2022/12/10 04:44:08;;;;;;;0.53;0.53;;;;;;;9.26;100.00;98871.38;5141083;27;20193;-64
2022/12/10 04:46:35;;;;;;;0.40;0.40;;;;;;;9.31;100.00;98872.91;5142443;27;20661;-64
2022/12/10 04:49:03;;;;;;;4.23;1.10;;;;;;;9.28;100.00;98865.31;5148574;27;20261;-63
2022/12/10 04:51:30;;;;;;;0.70;0.70;;;;;;;9.16;100.00;98868.28;5144178;27;20573;-63
2022/12/10 04:53:59;;;;;;;0.50;0.50;;;;;;;9.10;100.00;98871.06;5148743;27;20249;-63
2022/12/10 04:56:26;;;;;;;0.50;0.50;;;;;;;9.07;100.00;98860.94;5137863;27;20241;-63
2022/12/10 04:58:53;;;;;;;0.50;0.50;;;;;;;9.11;100.00;98867.59;5147228;27;20258;-63
2022/12/10 05:01:20;;;;;;;0.50;0.50;;;;;;;9.04;100.00;98837.19;5144076;27;20661;-64
2022/12/10 05:03:46;;;;;;;0.40;0.40;;;;;;;9.15;100.00;98853.00;5147151;27;20725;-63
2022/12/10 05:06:15;;;;;;;0.50;0.50;;;;;;;9.19;100.00;98860.53;5143843;27;20278;-64
2022/12/10 05:08:42;;;;;;;0.53;0.53;;;;;;;9.17;100.00;98849.53;5142860;27;20222;-64
2022/12/10 05:11:13;;;;;;;1.33;1.33;;;;;;;9.20;100.00;98857.09;5139285;27;20197;-64
2022/12/10 05:13:40;;;;;;;0.50;0.50;;;;;;;9.22;100.00;98849.34;5139163;27;20202;-63
2022/12/10 05:16:09;;;;;;;0.50;0.50;;;;;;;9.19;100.00;98860.53;5145500;27;20197;-64
2022/12/10 05:18:37;;;;;;;0.40;0.40;;;;;;;9.13;100.00;98865.84;5143776;27;20194;-63
2022/12/10 05:21:05;;;;;;;0.60;0.60;;;;;;;9.09;100.00;98843.81;5138726;27;20194;-64
2022/12/10 05:23:31;;;;;;;0.63;0.63;;;;;;;9.12;100.00;98861.59;5148861;27;20197;-64
2022/12/10 05:26:03;;;;;;;0.50;0.50;;;;;;;9.08;100.00;98865.13;5143294;27;20270;-64
2022/12/10 05:28:32;;;;;;;0.47;0.47;;;;;;;9.10;100.00;98860.84;5142671;27;20684;-64
2022/12/10 05:30:59;;;;;;;0.40;0.40;;;;;;;9.10;100.00;98860.84;5146206;27;20202;-63
2022/12/10 05:33:26;;;;;;;1.33;1.33;;;;;;;9.09;100.00;98858.31;5141265;27;20587;-63
2022/12/10 05:35:55;;;;;;;0.50;0.50;;;;;;;9.07;100.00;98863.50;5133559;27;20201;-64
2022/12/10 05:38:22;;;;;;;0.57;0.57;;;;;;;9.11;100.00;98861.66;5133169;27;20198;-64
2022/12/10 05:40:49;;;;;;;0.43;0.43;;;;;;;9.06;100.00;98864.38;5152756;27;20193;-64
2022/12/10 05:43:16;;;;;;;0.77;0.77;;;;;;;9.07;100.00;98870.31;5143976;27;20192;-64
2022/12/10 05:45:44;;;;;;;0.47;0.47;;;;;;;9.07;100.00;98873.72;5137001;27;20201;-64
2022/12/10 05:48:12;;;;;;;0.67;0.67;;;;;;;9.07;100.00;98855.81;5140467;27;20261;-63
2022/12/10 05:50:39;;;;;;;0.40;0.40;;;;;;;9.00;100.00;98826.22;5147393;27;20257;-63
2022/12/10 05:53:06;;;;;;;0.70;0.70;;;;;;;9.17;100.00;98846.97;5151105;27;20194;-64
2022/12/10 05:55:33;;;;;;;1.63;1.10;;;;;;;9.17;100.00;98849.53;5143120;27;20239;-63
2022/12/10 05:58:00;;;;;;;0.47;0.47;;;;;;;9.23;100.00;98856.16;5145340;27;20657;-64
2022/12/10 06:00:28;;;;;;;0.50;0.50;;;;;;;9.26;100.00;98856.03;5138612;27;20325;-64
2022/12/10 06:02:56;;;;;;;0.50;0.50;;;;;;;9.27;100.00;98848.28;5142407;27;20681;-64
2022/12/10 06:05:23;;;;;;;0.50;0.50;;;;;;;9.27;100.00;98845.75;5136896;27;20194;-64
2022/12/10 06:07:49;;;;;;;0.60;0.60;;;;;;;9.29;100.00;98845.72;5151574;27;20194;-64
2022/12/10 06:10:16;;;;;;;0.93;0.93;;;;;;;9.29;100.00;98841.44;5148707;27;21675;-63
2022/12/10 06:12:43;;;;;;;0.47;0.47;;;;;;;9.32;100.00;98836.22;5147538;27;20653;-64
2022/12/10 06:15:10;;;;;;;0.93;0.93;;;;;;;9.30;100.00;98827.75;5147169;27;20612;-64
2022/12/10 06:17:37;;;;;;;2.00;1.20;;;;;;;9.33;100.00;98827.66;5140777;27;20197;-64
2022/12/10 06:20:07;;;;;;;0.53;0.53;;;;;;;9.35;100.00;98820.75;5146793;27;20197;-63
2022/12/10 06:22:34;;;;;;;0.60;0.60;;;;;;;9.38;100.00;98830.88;5147778;27;20270;-64
2022/12/10 06:25:01;;;;;;;0.40;0.40;;;;;;;9.41;100.00;98830.78;5144906;27;20253;-64
2022/12/10 06:27:30;;;;;;;0.50;0.50;;;;;;;9.47;100.00;98845.91;5140116;27;20246;-64
2022/12/10 06:29:57;;;;;;;0.47;0.47;;;;;;;9.50;100.00;98850.91;5144915;27;20221;-64
2022/12/10 06:32:24;;;;;;;0.40;0.40;;;;;;;9.53;100.00;98844.88;5144940;27;20618;-64
2022/12/10 06:34:50;;;;;;;0.50;0.50;;;;;;;9.48;100.00;98847.59;5144080;27;20709;-64
2022/12/10 06:37:19;;;;;;;0.50;0.50;;;;;;;9.47;100.00;98851.03;5148273;27;20202;-64
2022/12/10 06:39:45;;;;;;;0.50;0.50;;;;;;;9.35;100.00;98848.88;5140165;27;20197;-63
2022/12/10 06:42:12;;;;;;;1.10;1.10;;;;;;;9.46;100.00;98859.59;5137408;27;20700;-64
2022/12/10 06:44:39;;;;;;;1.37;1.37;;;;;;;9.42;100.00;98863.16;5136632;27;20189;-64
2022/12/10 06:47:06;;;;;;;0.50;0.50;;;;;;;9.42;100.00;98863.16;5140875;27;20657;-64
2022/12/10 06:49:33;;;;;;;0.60;0.60;;;;;;;9.43;100.00;98857.13;5148242;27;20612;-64
2022/12/10 06:51:59;;;;;;;0.60;0.60;;;;;;;9.48;100.00;98860.38;5139118;27;20198;-64
2022/12/10 06:54:27;;;;;;;1.13;1.13;;;;;;;9.53;100.00;98854.28;5143101;27;20658;-64
2022/12/10 06:56:54;;;;;;;0.50;0.50;;;;;;;9.54;100.00;98850.81;5139827;27;20284;-64
2022/12/10 06:59:21;;;;;;;0.60;0.60;;;;;;;9.54;100.00;98856.75;5154594;27;20656;-64
2022/12/10 07:01:48;;;;;;;0.60;0.60;;;;;;;9.59;100.00;98859.19;5142174;27;20206;-64
2022/12/10 07:04:15;;;;;;;0.40;0.40;;;;;;;9.62;100.00;98851.38;5145172;27;20632;-64
2022/12/10 07:06:42;;;;;;;0.37;0.37;;;;;;;9.67;100.00;98860.56;5139211;27;20731;-64
2022/12/10 07:09:09;;;;;;;0.50;0.50;;;;;;;9.62;100.00;98846.28;5147799;27;20248;-64
2022/12/10 07:11:38;;;;;;;0.50;0.50;;;;;;;9.74;100.00;98853.50;5138936;27;20242;-64
2022/12/10 07:14:05;;;;;;;0.50;0.50;;;;;;;9.71;100.00;98849.34;5144736;27;20255;-64
2022/12/10 07:16:33;;;;;;;0.60;0.60;;;;;;;9.77;100.00;98843.16;5145228;27;20668;-64
2022/12/10 07:19:02;;;;;;;0.50;0.50;;;;;;;9.73;100.00;98842.44;5149729;27;20197;-64
2022/12/10 07:21:31;;;;;;;0.90;0.90;;;;;;;9.82;100.00;98838.72;5140005;27;20189;-64
2022/12/10 07:24:00;;;;;;;0.50;0.50;;;;;;;9.90;100.00;98836.72;5147430;27;20194;-64
2022/12/10 07:26:30;;;;;;;0.90;0.90;;;;;;;9.94;100.00;98833.16;5142314;27;20197;-64
2022/12/10 07:28:59;;;;;;;0.73;0.73;;;;;;;9.96;100.00;98833.94;5146664;27;20265;-64
2022/12/10 07:31:26;;;;;;;0.50;0.50;;;;;;;10.02;100.00;98826.00;5137562;27;20194;-64
2022/12/10 07:33:55;;;;;;;0.57;0.57;;;;;;;10.06;100.00;98837.81;5140924;27;20198;-63
2022/12/10 07:36:23;;;;;;;0.50;0.50;;;;;;;10.04;100.00;98826.81;5140928;27;20561;-64
2022/12/10 07:38:51;;;;;;;0.50;0.50;;;;;;;10.13;100.00;98828.19;5145114;27;20231;-64
2022/12/10 07:41:18;;;;;;;0.47;0.47;;;;;;;10.20;100.00;98827.94;5135059;27;20202;-63
2022/12/10 07:43:46;;;;;;;0.50;0.50;;;;;;;10.21;100.00;98819.34;5136075;27;20198;-64
2022/12/10 07:46:17;;;;;;;0.53;0.53;;;;;;;10.23;100.00;98819.31;5141561;27;20198;-64
2022/12/10 07:48:46;;;;;;;0.33;0.33;;;;;;;10.23;100.00;98827.81;5152068;27;20254;-64
2022/12/10 08:08:30;;;;;;;0.67;0.67;;;;;;;10.49;100.00;98827.66;5152402;27;20565;-64
2022/12/10 08:11:00;;;;;;;0.70;0.70;;;;;;;10.47;100.00;98836.28;5160078;27;20235;-65
2022/12/10 08:13:27;;;;;;;0.40;0.40;;;;;;;10.47;100.00;98834.56;5150176;27;20202;-64
2022/12/10 08:15:54;;;;;;;0.60;0.60;;;;;;;10.43;100.00;98835.59;5166054;27;20200;-64
2022/12/10 08:18:22;;;;;;;0.60;0.60;;;;;;;10.37;100.00;98840.91;5160168;27;20197;-65
2022/12/10 08:20:48;;;;;;;0.50;0.50;;;;;;;10.37;100.00;98830.66;5148636;27;20201;-64
2022/12/10 08:23:15;;;;;;;0.50;0.50;;;;;;;10.32;100.00;98832.59;5158036;27;20621;-64
2022/12/10 08:25:43;;;;;;;0.63;0.63;;;;;;;10.23;100.00;98817.56;5150986;27;20675;-64
2022/12/10 08:28:10;;;;;;;0.50;0.50;;;;;;;10.38;100.00;98816.97;5156965;27;20668;-64
2022/12/10 08:30:37;;;;;;;0.50;0.50;;;;;;;10.39;100.00;98813.53;5161415;27;20197;-64
2022/12/10 08:33:04;;;;;;;0.67;0.67;;;;;;;10.37;100.00;98801.69;5151749;27;20197;-64
2022/12/10 08:35:31;;;;;;;0.47;0.47;;;;;;;10.34;100.00;98805.16;5160771;27;20197;-64
2022/12/10 08:37:57;;;;;;;0.50;0.50;;;;;;;10.30;100.00;98806.22;5162327;27;20224;-64
2022/12/10 08:40:24;;;;;;;0.50;0.50;;;;;;;10.33;100.00;98813.78;5160787;27;20202;-64
2022/12/10 08:42:54;;;;;;;0.57;0.57;;;;;;;10.24;100.00;98793.59;5156385;27;20246;-64
2022/12/10 08:45:20;;;;;;;0.50;0.50;;;;;;;10.31;100.00;98807.84;5156865;27;20197;-64
2022/12/10 08:47:47;;;;;;;0.50;0.50;;;;;;;10.33;100.00;98800.97;5159869;27;20193;-64
2022/12/10 08:50:14;;;;;;;0.57;0.57;;;;;;;10.35;100.00;98806.84;5160761;27;20197;-65
2022/12/10 08:52:41;;;;;;;0.30;0.30;;;;;;;10.41;100.00;98798.09;5153621;27;20255;-64
2022/12/10 08:55:09;;;;;;;0.50;0.50;;;;;;;10.40;100.00;98804.94;5155730;27;20695;-64
2022/12/10 08:57:36;;;;;;;0.40;0.40;;;;;;;10.38;100.00;98785.41;5162402;27;20238;-65
2022/12/10 09:00:05;;;;;;;1.43;1.43;;;;;;;10.39;100.00;98795.59;5163352;27;20196;-64
2022/12/10 09:02:32;;;;;;;0.47;0.47;;;;;;;10.43;100.00;98794.59;5152948;27;20194;-64
2022/12/10 09:04:59;;;;;;;0.50;0.50;;;;;;;10.52;100.00;98791.66;5167976;27;20712;-64
2022/12/10 09:07:26;;;;;;;0.50;0.50;;;;;;;10.48;100.00;98797.78;5160362;27;20560;-64
2022/12/10 09:09:53;;;;;;;1.73;1.63;;;;;;;10.53;100.00;98788.19;5148139;27;20206;-64
2022/12/10 09:12:20;;;;;;;0.50;0.50;;;;;;;10.62;100.00;98778.47;5149661;27;20553;-65
2022/12/10 09:14:47;;;;;;;0.60;0.60;;;;;;;10.70;100.00;98776.41;5147001;27;20568;-65
2022/12/10 09:17:15;;;;;;;0.50;0.50;;;;;;;10.75;100.00;98759.13;5141100;27;20213;-64
2022/12/10 09:19:41;;;;;;;0.50;0.50;;;;;;;10.79;100.00;98750.44;5149423;27;20275;-65
2022/12/10 09:22:09;;;;;;;0.60;0.60;;;;;;;10.86;100.00;98733.88;5151410;27;20212;-65
2022/12/10 09:24:36;;;;;;;0.50;0.50;;;;;;;10.90;100.00;98735.41;5132095;27;20266;-65
2022/12/10 09:27:04;;;;;;;0.60;0.60;;;;;;;10.94;100.00;98731.84;5142195;27;20552;-69
2022/12/10 09:29:33;;;;;;;0.50;0.50;;;;;;;11.05;100.00;98717.66;5138444;27;20298;-67
2022/12/10 09:31:59;;;;;;;0.57;0.57;;;;;;;11.16;100.00;98714.63;5131342;27;20209;-67
2022/12/10 09:34:27;;;;;;;0.57;0.57;;;;;;;11.22;100.00;98714.34;5128565;27;20267;-67
2022/12/10 09:36:54;;;;;;;1.70;1.43;;;;;;;11.32;100.00;98714.78;5131211;27;20210;-67
2022/12/10 09:39:21;;;;;;;0.40;0.40;;;;;;;11.36;100.00;98716.31;5146569;27;20201;-67
2022/12/10 09:42:02;;;;;;;0.60;0.60;;;;;;;11.36;100.00;98719.72;5152410;27;20259;-66
2022/12/10 09:44:41;;;;;;;0.40;0.40;;;;;;;11.36;100.00;98694.06;5146047;27;20198;-67
2022/12/10 09:47:10;;;;;;;0.53;0.53;;;;;;;11.54;100.00;98720.63;5130885;27;20194;-67
2022/12/10 09:49:55;;;;;;;0.40;0.40;;;;;;;11.59;100.00;98705.88;5141465;27;20246;-68
2022/12/10 09:52:24;;;;;;;0.60;0.60;;;;;;;11.69;100.00;98696.03;5129279;27;20194;-67
2022/12/10 09:54:55;;;;;;;0.60;0.60;;;;;;;11.75;100.00;98690.63;5131812;27;20210;-68
2022/12/10 09:57:26;;;;;;;0.63;0.63;;;;;;;11.75;100.00;98695.75;5131415;27;20217;-73
2022/12/10 09:59:55;;;;;;;0.50;0.50;;;;;;;11.82;100.00;98692.00;5133047;27;20198;-67
2022/12/10 10:02:27;;;;;;;0.83;0.83;;;;;;;11.93;100.00;98677.75;5133138;27;20202;-68
2022/12/10 10:04:59;;;;;;;0.40;0.40;;;;;;;12.05;100.00;98686.66;5131068;27;20214;-70
2022/12/10 10:07:29;;;;;;;0.80;0.80;;;;;;;12.06;100.00;98678.84;5137450;27;20269;-71
2022/12/10 10:10:00;;;;;;;0.83;0.80;;;;;;;12.11;100.00;98665.78;5137192;27;20193;-70
2022/12/10 10:12:29;;;;;;;0.50;0.50;;;;;;;12.01;100.00;98646.59;5142481;27;20206;-71
2022/12/10 10:14:55;;;;;;;0.77;0.77;;;;;;;12.24;100.00;98669.44;5140090;27;20202;-71
2022/12/10 10:17:28;;;;;;;1.03;1.03;;;;;;;12.26;100.00;98666.78;5141511;27;20263;-69
2022/12/10 10:19:56;;;;;;;0.60;0.60;;;;;;;12.26;100.00;98649.63;5138558;27;20198;-72
2022/12/10 10:22:23;;;;;;;0.50;0.50;;;;;;;12.35;100.00;98659.44;5142430;27;20250;-71
2022/12/10 10:24:50;;;;;;;0.60;0.60;;;;;;;12.36;100.00;98655.16;5139271;27;20205;-70
2022/12/10 10:27:19;;;;;;;0.60;0.60;;;;;;;12.39;100.00;98648.13;5142753;27;20569;-71
2022/12/10 10:29:49;;;;;;;0.40;0.40;;;;;;;12.39;100.00;98650.69;5144537;27;20198;-72
2022/12/10 13:06:23;;;;;;;0.60;0.60;;;;;;;12.60;100.00;98443.94;4949301;28;20359;-71
2022/12/10 13:08:53;;;;;;;0.80;0.80;;;;;;;12.50;100.00;98427.31;4965298;28;20254;-71
2022/12/10 13:11:29;;;;;;;0.47;0.47;;;;;;;12.67;100.00;98439.28;4965177;28;20200;-68
2022/12/10 13:14:30;;;;;;;0.57;0.57;;;;;;;12.74;100.00;98444.94;4966664;28;20222;-72
2022/12/10 13:17:16;;;;;;;0.97;0.97;;;;;;;12.82;100.00;98458.22;4965644;28;20259;-72
2022/12/10 13:19:43;;;;;;;0.87;0.87;;;;;;;12.82;100.00;98463.38;4974629;28;20576;-71
2022/12/10 13:22:13;;;;;;;0.50;0.50;;;;;;;12.89;100.00;98459.53;4967735;28;20308;-72
2022/12/10 13:25:10;;;;;;;0.43;0.43;;;;;;;12.84;100.00;98443.53;4977891;28;20286;-71
2022/12/10 13:27:37;;;;;;;0.70;0.70;;;;;;;12.85;100.00;98458.06;4965442;28;20287;-67
2022/12/10 13:30:21;;;;;;;1.17;1.17;;;;;;;12.93;100.00;98467.00;4966584;28;20195;-67
2022/12/10 13:32:53;;;;;;;0.93;0.90;;;;;;;13.00;100.00;98450.31;4971109;28;20199;-64
2022/12/10 13:35:31;;;;;;;1.63;1.63;;;;;;;12.91;100.00;98442.28;4963483;28;20200;-65
2022/12/10 13:38:06;;;;;;;0.70;0.70;;;;;;;12.88;100.00;98439.88;4956263;28;20572;-66
2022/12/10 13:46:26;;;;;;;0.80;0.80;;;;;;;12.78;100.00;98441.28;4966342;28;20199;-66
2022/12/10 13:48:55;;;;;;;1.07;1.07;;;;;;;12.86;100.00;98434.00;4965562;28;20208;-66
2022/12/10 13:51:44;;;;;;;0.80;0.80;;;;;;;12.87;100.00;98420.19;4962483;28;20204;-66
2022/12/10 13:54:40;;;;;;;0.80;0.80;;;;;;;12.88;100.00;98414.16;4966191;28;20234;-65
2022/12/10 13:57:21;;;;;;;0.70;0.70;;;;;;;12.97;100.00;98408.50;4964875;28;20260;-68
2022/12/10 13:59:58;;;;;;;0.50;0.50;;;;;;;12.78;100.00;98413.00;4968152;28;20253;-66
2022/12/10 14:02:49;;;;;;;0.40;0.40;;;;;;;12.64;100.00;98399.16;4970754;28;20214;-66
2022/12/10 14:05:28;;;;;;;0.70;0.70;;;;;;;12.64;100.00;98393.16;4967252;28;20236;-66
2022/12/10 14:07:59;;;;;;;0.80;0.80;;;;;;;12.67;100.00;98394.75;4967528;28;20230;-66
2022/12/10 14:10:33;;;;;;;0.50;0.50;;;;;;;12.73;100.00;98397.00;4965460;28;20751;-66
2022/12/10 14:13:01;;;;;;;2.40;1.53;;;;;;;12.75;100.00;98390.03;4962334;28;20200;-66
2022/12/10 14:15:29;;;;;;;0.70;0.70;;;;;;;12.82;100.00;98386.22;4962730;28;20207;-66
2022/12/10 14:18:02;;;;;;;0.60;0.60;;;;;;;12.79;100.00;98382.06;4965232;28;20235;-65
2022/12/10 14:20:33;;;;;;;1.30;1.00;;;;;;;12.63;100.00;98386.41;4964949;28;20207;-66
2022/12/10 14:25:52;;;;;;;0.80;0.80;;;;;;;12.66;100.00;98375.09;4964068;28;20260;-65
2022/12/10 14:28:19;;;;;;;0.80;0.80;;;;;;;12.64;100.00;98378.56;4965609;28;20255;-66
2022/12/10 14:30:48;;;;;;;1.93;1.93;;;;;;;12.62;100.00;98370.13;4963832;28;20204;-65
2022/12/10 14:33:19;;;;;;;1.83;1.73;;;;;;;12.58;100.00;98370.38;4961640;28;20204;-65
2022/12/10 14:35:48;;;;;;;0.83;0.83;;;;;;;12.54;100.00;98372.28;4959195;28;20224;-65
2022/12/10 14:38:20;;;;;;;1.60;1.27;;;;;;;12.57;100.00;98369.53;4972464;28;20226;-65
2022/12/10 14:40:49;;;;;;;1.40;1.40;;;;;;;12.58;100.00;98368.63;4963357;28;20211;-64
2022/12/10 14:43:21;;;;;;;1.47;1.47;;;;;;;12.60;100.00;98374.50;4961778;28;20204;-66
2022/12/10 14:45:51;;;;;;;0.77;0.77;;;;;;;12.66;100.00;98375.09;4963934;28;20196;-65
2022/12/10 14:48:20;;;;;;;0.70;0.70;;;;;;;12.64;100.00;98383.72;4966377;28;20278;-65